createdAt,value
2017-07-04T00:01:01.503Z,67.00
2017-07-04T00:03:28.942Z,66.60
2017-07-04T00:05:56.381Z,67.80
2017-07-04T00:08:23.816Z,67.50
2017-07-04T00:10:52.012Z,68.60
2017-07-04T00:13:19.449Z,68.50
2017-07-04T00:15:47.645Z,69.10
2017-07-04T00:18:15.081Z,68.30
2017-07-04T00:20:42.508Z,67.80
2017-07-04T00:23:09.949Z,68.00
2017-07-04T00:25:37.387Z,67.80
2017-07-04T00:28:04.833Z,67.90
2017-07-04T00:30:32.257Z,68.40
2017-07-04T00:32:59.696Z,68.80
2017-07-04T00:35:27.125Z,68.90
2017-07-04T00:37:54.566Z,69.10
2017-07-04T00:40:21.993Z,69.10
2017-07-04T00:42:49.441Z,69.40
2017-07-04T00:45:16.861Z,69.00
2017-07-04T00:47:44.299Z,69.90
2017-07-04T00:50:11.737Z,69.90
2017-07-04T00:52:39.160Z,69.20
2017-07-04T00:55:06.598Z,69.80
2017-07-04T00:57:34.034Z,70.40
2017-07-04T01:00:01.469Z,70.50
2017-07-04T01:02:28.897Z,70.60
2017-07-04T01:04:56.333Z,71.00
2017-07-04T01:07:23.761Z,71.20
2017-07-04T01:09:51.192Z,71.50
2017-07-04T01:12:18.627Z,71.50
2017-07-04T01:14:46.048Z,71.60
2017-07-04T01:17:13.472Z,71.30
2017-07-04T01:19:40.906Z,71.40
2017-07-04T01:22:08.333Z,71.40
2017-07-04T01:24:35.763Z,72.00
2017-07-04T01:27:03.207Z,71.10
2017-07-04T01:29:30.635Z,71.00
2017-07-04T01:31:58.055Z,70.90
2017-07-04T01:34:25.506Z,71.30
2017-07-04T01:36:52.943Z,71.50
2017-07-04T01:39:20.368Z,71.90
2017-07-04T01:41:47.810Z,72.50
2017-07-04T01:44:15.228Z,73.10
2017-07-04T01:46:42.666Z,73.20
2017-07-04T01:49:10.089Z,72.20
2017-07-04T01:51:37.524Z,72.80
2017-07-04T01:54:04.943Z,72.80
2017-07-04T01:56:32.385Z,72.30
2017-07-04T01:58:59.798Z,72.40
2017-07-04T02:01:27.230Z,72.20
2017-07-04T02:03:54.680Z,72.10
2017-07-04T02:06:22.103Z,71.60
2017-07-04T02:08:49.526Z,71.50
2017-07-04T02:11:17.717Z,71.90
2017-07-04T02:13:45.134Z,71.90
2017-07-04T02:16:12.577Z,72.30
2017-07-04T02:18:39.996Z,72.60
2017-07-04T02:21:07.440Z,72.80
2017-07-04T02:23:34.860Z,72.50
2017-07-04T02:26:02.286Z,72.70
2017-07-04T02:28:29.708Z,72.50
2017-07-04T02:30:57.131Z,72.90
2017-07-04T02:33:24.574Z,72.80
2017-07-04T02:35:51.996Z,73.10
2017-07-04T02:38:19.423Z,72.90
2017-07-04T02:40:47.627Z,74.00
2017-07-04T02:43:15.060Z,73.90
2017-07-04T02:45:42.484Z,74.50
2017-07-04T02:48:09.951Z,73.80
2017-07-04T02:50:37.356Z,74.20
2017-07-04T02:53:04.789Z,73.90
2017-07-04T02:55:32.207Z,74.10
2017-07-04T02:57:59.643Z,74.10
2017-07-04T03:00:27.071Z,75.10
2017-07-04T03:02:54.501Z,75.10
2017-07-04T03:05:22.694Z,75.70
2017-07-04T03:07:50.884Z,75.50
2017-07-04T03:10:18.312Z,75.40
2017-07-04T03:12:46.523Z,75.20
2017-07-04T03:15:13.936Z,75.20
2017-07-04T03:17:42.146Z,75.80
2017-07-04T03:20:09.572Z,75.70
2017-07-04T03:22:36.996Z,75.90
2017-07-04T03:25:04.440Z,75.70
2017-07-04T03:27:31.869Z,75.60
2017-07-04T03:29:59.300Z,75.50
2017-07-04T03:32:26.728Z,75.60
2017-07-04T03:34:54.169Z,76.30
2017-07-04T03:37:21.600Z,75.90
2017-07-04T03:39:49.082Z,75.90
2017-07-04T03:42:16.484Z,76.10
2017-07-04T03:44:43.916Z,76.60
2017-07-04T03:47:11.347Z,76.60
2017-07-04T03:49:38.763Z,76.20
2017-07-04T03:52:06.193Z,76.90
2017-07-04T03:54:33.623Z,76.50
2017-07-04T03:57:01.046Z,76.60
2017-07-04T03:59:28.476Z,76.80
2017-07-04T04:01:55.897Z,76.50
2017-07-04T04:04:23.338Z,77.20
2017-07-04T04:06:50.765Z,77.60
2017-07-04T04:09:18.200Z,77.10
2017-07-04T04:11:45.611Z,76.20
2017-07-04T04:14:13.048Z,76.10
2017-07-04T04:16:40.474Z,76.50
2017-07-04T04:19:07.898Z,76.00
2017-07-04T04:21:35.330Z,76.10
2017-07-04T04:24:02.751Z,76.90
2017-07-04T04:26:30.939Z,75.70
2017-07-04T04:28:58.363Z,75.60
2017-07-04T04:31:25.795Z,76.10
2017-07-04T04:33:53.230Z,76.10
2017-07-04T04:36:20.663Z,75.50
2017-07-04T04:38:48.088Z,76.20
2017-07-04T04:41:15.515Z,76.00
2017-07-04T04:43:42.948Z,76.70
2017-07-04T04:46:10.378Z,75.40
2017-07-04T04:48:38.568Z,75.80
2017-07-04T04:51:06.004Z,75.80
2017-07-04T04:53:34.213Z,75.40
2017-07-04T04:56:01.636Z,75.40
2017-07-04T04:58:29.834Z,75.30
2017-07-04T05:00:57.260Z,75.20
2017-07-04T05:03:25.462Z,73.40
2017-07-04T05:05:52.895Z,73.60
2017-07-04T05:08:20.315Z,73.90
2017-07-04T05:10:47.740Z,73.40
2017-07-04T05:13:15.175Z,72.20
2017-07-04T05:15:42.592Z,71.30
2017-07-04T05:18:10.031Z,71.80
2017-07-04T05:20:37.451Z,71.00
2017-07-04T05:23:04.890Z,70.70
2017-07-04T05:25:33.091Z,69.60
2017-07-04T05:28:00.524Z,69.60
2017-07-04T05:30:27.948Z,69.60
2017-07-04T05:32:55.384Z,67.70
2017-07-04T05:35:22.820Z,68.00
2017-07-04T05:37:50.256Z,66.20
2017-07-04T05:40:18.455Z,65.10
2017-07-04T05:42:45.885Z,65.00
2017-07-04T05:45:14.075Z,63.70
2017-07-04T05:47:41.504Z,63.70
2017-07-04T05:50:09.692Z,63.50
2017-07-04T05:52:37.123Z,62.80
2017-07-04T05:55:04.557Z,61.40
2017-07-04T05:57:32.000Z,59.90
2017-07-04T05:59:59.411Z,60.60
2017-07-04T06:02:27.616Z,59.30
2017-07-04T06:04:55.039Z,59.30
2017-07-04T06:07:22.463Z,57.60
2017-07-04T06:09:49.904Z,58.00
2017-07-04T06:12:17.326Z,57.60
2017-07-04T06:14:44.767Z,55.20
2017-07-04T06:17:12.192Z,57.00
2017-07-04T06:19:39.636Z,54.20
2017-07-04T06:22:07.851Z,55.00
2017-07-04T06:24:35.285Z,55.40
2017-07-04T06:27:02.716Z,55.30
2017-07-04T06:29:30.155Z,54.20
2017-07-04T06:31:57.581Z,53.00
2017-07-04T06:34:25.775Z,52.20
2017-07-04T06:36:53.205Z,51.70
2017-07-04T06:39:20.639Z,50.30
2017-07-04T06:41:48.068Z,50.80
2017-07-04T06:44:15.492Z,50.60
2017-07-04T06:46:42.920Z,50.20
2017-07-04T06:49:10.357Z,47.60
2017-07-04T06:51:37.779Z,50.20
2017-07-04T06:54:05.212Z,50.60
2017-07-04T06:56:32.644Z,48.30
2017-07-04T06:59:00.077Z,49.30
2017-07-04T07:01:27.506Z,48.60
2017-07-04T07:03:54.931Z,48.10
2017-07-04T07:06:22.363Z,46.40
2017-07-04T07:08:49.793Z,46.60
2017-07-04T07:11:17.233Z,46.60
2017-07-04T07:13:44.665Z,46.80
2017-07-04T07:16:12.104Z,47.60
2017-07-04T07:18:39.539Z,46.90
2017-07-04T07:21:06.972Z,46.80
2017-07-04T07:23:34.395Z,45.20
2017-07-04T07:26:01.832Z,42.30
2017-07-04T07:28:29.255Z,45.40
2017-07-04T07:30:56.688Z,45.20
2017-07-04T07:33:24.119Z,43.30
2017-07-04T07:35:51.563Z,44.30
2017-07-04T07:38:18.994Z,45.10
2017-07-04T07:40:46.428Z,42.30
2017-07-04T07:43:13.855Z,42.50
2017-07-04T07:45:41.291Z,40.60
2017-07-04T07:48:08.720Z,41.90
2017-07-04T07:50:36.168Z,42.40
2017-07-04T07:53:03.607Z,41.60
2017-07-04T07:55:31.059Z,43.50
2017-07-04T07:57:58.479Z,43.10
2017-07-04T08:00:25.914Z,43.90
2017-07-04T08:02:53.353Z,41.90
2017-07-04T08:05:20.832Z,41.40
2017-07-04T08:07:49.000Z,38.80
2017-07-04T08:10:16.428Z,39.90
2017-07-04T08:12:43.855Z,38.80
2017-07-04T08:15:11.292Z,40.30
2017-07-04T08:17:39.491Z,35.00
2017-07-04T08:20:06.924Z,34.90
2017-07-04T08:22:35.124Z,37.90
2017-07-04T08:25:02.543Z,37.70
2017-07-04T08:27:30.511Z,39.70
2017-07-04T08:29:57.923Z,38.50
2017-07-04T08:32:25.380Z,37.80
2017-07-04T08:34:52.819Z,38.60
2017-07-04T08:37:20.251Z,34.40
2017-07-04T08:39:48.441Z,36.40
2017-07-04T08:42:15.874Z,36.40
2017-07-04T08:44:44.063Z,34.60
2017-07-04T08:47:11.502Z,34.10
2017-07-04T08:49:38.924Z,34.50
2017-07-04T08:52:06.359Z,35.40
2017-07-04T08:54:33.780Z,37.30
2017-07-04T08:57:01.975Z,37.80
2017-07-04T08:59:29.407Z,37.70
2017-07-04T09:01:56.837Z,36.60
2017-07-04T09:04:24.315Z,35.90
2017-07-04T09:06:51.732Z,38.30
2017-07-04T09:09:19.165Z,34.80
2017-07-04T09:11:46.592Z,36.80
2017-07-04T09:14:14.030Z,40.10
2017-07-04T09:16:41.452Z,38.60
2017-07-04T09:19:08.884Z,40.10
2017-07-04T09:21:36.308Z,38.50
2017-07-04T09:24:03.743Z,41.20
2017-07-04T09:26:31.176Z,43.80
2017-07-04T09:28:58.600Z,40.80
2017-07-04T09:31:26.030Z,37.80
2017-07-04T09:33:53.459Z,40.10
2017-07-04T09:36:20.888Z,40.80
2017-07-04T09:38:48.314Z,39.50
2017-07-04T09:41:16.686Z,36.70
2017-07-04T09:43:44.880Z,38.20
2017-07-04T09:46:12.299Z,38.10
2017-07-04T09:48:39.741Z,37.80
2017-07-04T09:51:07.197Z,40.20
2017-07-04T09:53:34.620Z,37.60
2017-07-04T09:56:02.049Z,41.10
2017-07-04T09:58:29.477Z,39.50
2017-07-04T10:00:56.907Z,38.40
2017-07-04T10:03:24.339Z,39.00
2017-07-04T10:05:51.767Z,36.60
2017-07-04T10:08:19.188Z,42.10
2017-07-04T10:10:46.637Z,40.70
2017-07-04T10:13:14.051Z,38.70
2017-07-04T10:15:41.487Z,34.80
2017-07-04T10:18:08.907Z,38.80
2017-07-04T10:20:36.332Z,36.90
2017-07-04T10:23:05.703Z,37.30
2017-07-04T10:25:33.139Z,37.20
2017-07-04T10:28:00.568Z,36.70
2017-07-04T10:30:28.001Z,38.10
2017-07-04T10:32:55.434Z,34.40
2017-07-04T10:35:22.855Z,34.40
2017-07-04T10:37:50.275Z,36.50
2017-07-04T10:40:17.718Z,39.70
2017-07-04T10:42:45.144Z,35.90
2017-07-04T10:45:12.572Z,37.40
2017-07-04T10:47:40.003Z,37.20
2017-07-04T10:50:07.428Z,35.00
2017-07-04T10:52:34.851Z,35.10
2017-07-04T10:55:02.289Z,37.40
2017-07-04T10:57:29.717Z,34.70
2017-07-04T10:59:57.145Z,39.20
2017-07-04T11:02:24.580Z,41.20
2017-07-04T11:04:52.008Z,41.10
2017-07-04T11:07:19.447Z,41.70
2017-07-04T11:09:47.631Z,39.50
2017-07-04T11:12:15.069Z,39.50
2017-07-04T11:14:42.497Z,38.20
2017-07-04T11:17:09.923Z,39.20
2017-07-04T11:19:37.357Z,37.20
2017-07-04T11:22:04.799Z,36.10
2017-07-04T11:24:32.240Z,38.50
2017-07-04T11:26:59.659Z,35.60
2017-07-04T11:29:27.081Z,36.80
2017-07-04T11:31:54.517Z,40.30
2017-07-04T11:34:21.940Z,36.40
2017-07-04T11:36:49.375Z,38.30
2017-07-04T11:39:16.809Z,36.40
2017-07-04T11:41:44.239Z,38.10
2017-07-04T11:44:12.436Z,38.20
2017-07-04T11:46:39.865Z,38.20
2017-07-04T11:49:07.311Z,41.10
2017-07-04T11:51:34.727Z,36.60
2017-07-04T11:54:02.159Z,36.60
2017-07-04T11:56:29.584Z,35.80
2017-07-04T11:58:57.017Z,36.90
2017-07-04T12:01:24.439Z,40.20
2017-07-04T12:03:51.867Z,34.80
2017-07-04T12:06:19.297Z,36.10
2017-07-04T12:08:46.728Z,41.40
2017-07-04T12:11:14.146Z,39.00
2017-07-04T12:13:41.581Z,39.70
2017-07-04T12:16:09.011Z,37.30
2017-07-04T12:18:36.451Z,39.10
2017-07-04T12:21:03.873Z,42.30
2017-07-04T12:23:31.299Z,39.50
2017-07-04T12:25:58.729Z,39.50
2017-07-04T12:28:26.156Z,36.70
2017-07-04T12:30:53.578Z,38.00
2017-07-04T12:33:21.020Z,38.30
2017-07-04T12:35:48.456Z,36.80
2017-07-04T12:38:15.904Z,39.90
2017-07-04T12:40:43.332Z,38.40
2017-07-04T12:43:10.760Z,40.10
2017-07-04T12:45:38.192Z,39.90
2017-07-04T12:48:05.617Z,38.50
2017-07-04T12:50:33.049Z,41.50
2017-07-04T12:53:01.246Z,37.10
2017-07-04T12:55:28.675Z,37.10
2017-07-04T12:57:56.096Z,40.30
2017-07-04T13:00:23.529Z,38.40
2017-07-04T13:02:50.956Z,42.10
2017-07-04T13:05:19.880Z,40.70
2017-07-04T13:07:47.305Z,37.20
2017-07-04T13:10:14.763Z,36.70
2017-07-04T13:12:42.176Z,38.30
2017-07-04T13:15:09.621Z,40.40
2017-07-04T13:17:37.040Z,36.70
2017-07-04T13:20:04.472Z,38.30
2017-07-04T13:22:31.895Z,38.30
2017-07-04T13:24:59.564Z,37.20
2017-07-04T13:27:26.995Z,39.20
2017-07-04T13:29:54.426Z,36.40
2017-07-04T13:32:21.853Z,40.10
2017-07-04T13:34:49.289Z,39.80
2017-07-04T13:37:16.712Z,38.00
2017-07-04T13:39:44.132Z,37.80
2017-07-04T13:42:11.577Z,40.20
2017-07-04T13:44:39.005Z,38.20
2017-07-04T13:47:06.442Z,37.20
2017-07-04T13:49:33.865Z,39.00
2017-07-04T13:52:02.051Z,37.10
2017-07-04T13:54:29.481Z,37.00
2017-07-04T13:56:56.969Z,37.60
2017-07-04T13:59:24.405Z,38.80
2017-07-04T14:01:51.828Z,37.60
2017-07-04T14:04:19.259Z,37.90
2017-07-04T14:06:46.695Z,36.50
2017-07-04T14:09:14.124Z,35.90
2017-07-04T14:11:41.552Z,35.40
2017-07-04T14:14:08.981Z,35.50
2017-07-04T14:16:36.408Z,38.10
2017-07-04T14:19:03.836Z,38.90
2017-07-04T14:21:31.278Z,35.40
2017-07-04T14:23:58.700Z,38.20
2017-07-04T14:26:26.136Z,37.60
2017-07-04T14:28:53.566Z,42.00
2017-07-04T14:31:20.988Z,39.30
2017-07-04T14:33:48.439Z,34.90
2017-07-04T14:36:15.865Z,36.40
2017-07-04T14:38:43.301Z,37.00
2017-07-04T14:41:10.734Z,39.10
2017-07-04T14:43:38.168Z,38.10
2017-07-04T14:46:05.597Z,38.90
2017-07-04T14:48:33.025Z,36.50
2017-07-04T14:51:00.443Z,35.40
2017-07-04T14:53:27.883Z,36.80
2017-07-04T14:55:55.317Z,36.60
2017-07-04T14:58:22.749Z,37.50
2017-07-04T15:00:50.177Z,38.10
2017-07-04T15:03:17.617Z,39.80
2017-07-04T15:05:45.044Z,41.00
2017-07-04T15:08:12.473Z,39.80
2017-07-04T15:10:39.895Z,39.80
2017-07-04T15:13:07.321Z,41.40
2017-07-04T15:15:34.749Z,41.60
2017-07-04T15:18:02.463Z,40.30
2017-07-04T15:20:29.877Z,38.50
2017-07-04T15:22:58.116Z,41.80
2017-07-04T15:25:25.584Z,41.80
2017-07-04T15:27:52.993Z,43.00
2017-07-04T15:30:20.433Z,38.50
2017-07-04T15:32:47.896Z,40.50
2017-07-04T15:35:15.306Z,38.30
2017-07-04T15:37:42.750Z,39.00
2017-07-04T15:40:10.177Z,38.40
2017-07-04T15:42:37.618Z,40.10
2017-07-04T15:45:05.048Z,39.10
2017-07-04T15:47:32.472Z,40.20
2017-07-04T15:49:59.903Z,39.50
2017-07-04T15:52:27.330Z,40.50
2017-07-04T15:54:54.764Z,41.00
2017-07-04T15:57:22.194Z,41.10
2017-07-04T15:59:49.621Z,40.90
2017-07-04T16:02:17.039Z,38.90
2017-07-04T16:04:44.471Z,38.50
2017-07-04T16:07:11.900Z,40.60
2017-07-04T16:09:39.337Z,39.10
2017-07-04T16:12:06.772Z,38.20
2017-07-04T16:14:34.200Z,37.20
2017-07-04T16:17:01.636Z,37.60
2017-07-04T16:19:29.097Z,37.60
2017-07-04T16:21:56.530Z,36.30
2017-07-04T16:24:23.953Z,36.50
2017-07-04T16:26:51.377Z,36.80
2017-07-04T16:29:18.806Z,36.30
2017-07-04T16:31:46.233Z,37.20
2017-07-04T16:34:14.425Z,37.00
2017-07-04T16:36:41.860Z,37.00
2017-07-04T16:39:09.284Z,36.70
2017-07-04T16:41:36.718Z,37.80
2017-07-04T16:44:04.177Z,38.50
2017-07-04T16:46:31.661Z,40.10
2017-07-04T16:48:59.090Z,38.50
2017-07-04T16:51:26.531Z,41.10
2017-07-04T16:53:53.951Z,42.90
2017-07-04T16:56:21.394Z,42.40
2017-07-04T16:58:48.812Z,42.80
2017-07-04T17:01:16.240Z,43.30
2017-07-04T17:03:43.679Z,39.80
2017-07-04T17:06:13.641Z,38.50
2017-07-04T17:08:41.048Z,38.10
2017-07-04T17:11:08.486Z,40.30
2017-07-04T17:13:35.915Z,39.30
2017-07-04T17:16:03.359Z,39.30
2017-07-04T17:18:30.781Z,39.80
2017-07-04T17:20:58.210Z,37.10
2017-07-04T17:23:25.641Z,38.00
2017-07-04T17:25:53.060Z,39.40
2017-07-04T17:28:21.260Z,39.60
2017-07-04T17:30:48.684Z,39.60
2017-07-04T17:33:16.111Z,40.80
2017-07-04T17:35:43.541Z,40.50
2017-07-04T17:38:10.976Z,38.90
2017-07-04T17:40:38.403Z,38.80
2017-07-04T17:43:05.837Z,39.50
2017-07-04T17:45:33.255Z,40.40
2017-07-04T17:48:00.695Z,40.70
2017-07-04T17:50:28.112Z,40.70
2017-07-04T17:52:55.539Z,40.10
2017-07-04T17:55:22.964Z,41.40
2017-07-04T17:57:50.397Z,41.70
2017-07-04T18:00:17.820Z,42.90
2017-07-04T18:02:45.257Z,40.80
2017-07-04T18:05:12.676Z,41.30
2017-07-04T18:07:40.105Z,41.60
2017-07-04T18:10:07.541Z,41.30
2017-07-04T18:12:34.984Z,41.20
2017-07-04T18:15:02.400Z,41.10
2017-07-04T18:17:30.597Z,41.50
2017-07-04T18:19:58.029Z,41.40
2017-07-04T18:22:25.460Z,41.40
2017-07-04T18:24:52.889Z,42.50
2017-07-04T18:27:20.303Z,42.10
2017-07-04T18:29:47.750Z,42.10
2017-07-04T18:32:15.164Z,42.00
2017-07-04T18:34:42.592Z,42.30
2017-07-04T18:37:10.027Z,43.70
2017-07-04T18:39:38.219Z,50.30
2017-07-04T18:42:05.643Z,50.30
2017-07-04T18:44:33.076Z,50.50
2017-07-04T18:47:00.504Z,50.90
2017-07-04T18:49:27.939Z,50.20
2017-07-04T18:51:55.373Z,51.20
2017-07-04T18:54:22.796Z,50.30
2017-07-04T18:56:50.224Z,50.60
2017-07-04T18:59:17.663Z,49.10
2017-07-04T19:01:45.093Z,48.40
2017-07-04T19:04:12.515Z,48.30
2017-07-04T19:06:39.967Z,48.70
2017-07-04T19:09:07.377Z,48.20
2017-07-04T19:11:34.805Z,48.80
2017-07-04T19:14:02.223Z,47.90
2017-07-04T19:16:29.657Z,48.40
2017-07-04T19:18:57.088Z,47.70
2017-07-04T19:21:24.516Z,49.20
2017-07-04T19:23:51.944Z,52.00
2017-07-04T19:26:19.377Z,52.10
2017-07-04T19:28:46.810Z,51.10
2017-07-04T19:31:14.231Z,51.10
2017-07-04T19:33:41.657Z,50.00
2017-07-04T19:36:09.090Z,49.50
2017-07-04T19:38:36.521Z,49.70
2017-07-04T19:41:03.956Z,49.80
2017-07-04T19:43:31.380Z,51.50
2017-07-04T19:45:58.814Z,51.90
2017-07-04T19:48:26.243Z,51.90
2017-07-04T19:50:53.683Z,52.20
2017-07-04T19:53:21.107Z,52.80
2017-07-04T19:55:48.558Z,51.60
2017-07-04T19:58:15.976Z,52.20
2017-07-04T20:00:43.396Z,52.00
2017-07-04T20:03:10.828Z,52.50
2017-07-04T20:05:38.260Z,52.50
2017-07-04T20:08:05.696Z,53.10
2017-07-04T20:10:33.123Z,52.20
2017-07-04T20:13:00.559Z,52.80
2017-07-04T20:15:27.984Z,52.70
2017-07-04T20:17:55.417Z,52.60
2017-07-04T20:20:22.860Z,53.00
2017-07-04T20:22:50.288Z,53.20
2017-07-04T20:25:17.717Z,53.40
2017-07-04T20:27:45.146Z,53.60
2017-07-04T20:30:12.577Z,54.10
2017-07-04T20:32:40.019Z,54.40
2017-07-04T20:35:07.433Z,54.60
2017-07-04T20:37:34.860Z,55.30
2017-07-04T20:40:02.291Z,56.10
2017-07-04T20:42:29.738Z,57.40
2017-07-04T20:44:57.154Z,57.40
2017-07-04T20:47:24.584Z,57.60
2017-07-04T20:49:52.013Z,57.60
2017-07-04T20:52:19.478Z,57.40
2017-07-04T20:54:46.909Z,57.40
2017-07-04T20:57:15.101Z,58.60
2017-07-04T20:59:42.532Z,58.60
2017-07-04T21:02:10.725Z,59.40
2017-07-04T21:04:38.155Z,59.30
2017-07-04T21:07:05.580Z,60.00
2017-07-04T21:09:33.008Z,59.60
2017-07-04T21:12:00.432Z,59.60
2017-07-04T21:14:28.636Z,60.70
2017-07-04T21:16:56.061Z,60.50
2017-07-04T21:19:23.495Z,60.20
2017-07-04T21:21:50.942Z,60.30
2017-07-04T21:24:18.366Z,60.80
2017-07-04T21:26:45.793Z,61.10
2017-07-04T21:29:13.220Z,61.30
2017-07-04T21:31:40.639Z,61.40
2017-07-04T21:34:08.071Z,61.90
2017-07-04T21:36:36.259Z,62.20
2017-07-04T21:39:03.697Z,62.20
2017-07-04T21:41:31.124Z,62.90
2017-07-04T21:43:58.579Z,63.00
2017-07-04T21:46:26.003Z,63.30
2017-07-04T21:48:53.428Z,63.50
2017-07-04T21:51:20.852Z,64.10
2017-07-04T21:53:48.284Z,64.50
2017-07-04T21:56:15.715Z,65.70
2017-07-04T21:58:43.140Z,67.00
2017-07-04T22:01:10.575Z,67.60
2017-07-04T22:03:38.005Z,68.40
2017-07-04T22:06:05.432Z,68.00
2017-07-04T22:08:32.851Z,68.40
2017-07-04T22:11:00.283Z,68.60
2017-07-04T22:13:27.708Z,69.30
2017-07-04T22:15:55.140Z,69.90
2017-07-04T22:18:22.576Z,70.50
2017-07-04T22:20:50.007Z,71.40
2017-07-04T22:23:17.435Z,71.60
2017-07-04T22:25:44.863Z,71.50
2017-07-04T22:28:13.052Z,71.30
2017-07-04T22:30:40.495Z,71.30
2017-07-04T22:33:07.920Z,70.60
2017-07-04T22:35:35.357Z,70.80
2017-07-04T22:38:02.789Z,70.70
2017-07-04T22:40:30.224Z,69.20
2017-07-04T22:42:57.648Z,69.10
2017-07-04T22:45:25.078Z,69.60
2017-07-04T22:47:52.523Z,70.20
2017-07-04T22:50:19.948Z,70.00
2017-07-04T22:52:47.381Z,70.20
2017-07-04T22:55:14.815Z,69.40
2017-07-04T22:57:42.244Z,68.70
2017-07-04T23:00:09.668Z,68.60
2017-07-04T23:02:37.091Z,68.70
2017-07-04T23:05:04.524Z,69.60
2017-07-04T23:07:31.960Z,70.50
2017-07-04T23:09:59.391Z,70.20
2017-07-04T23:12:26.830Z,71.10
2017-07-04T23:14:54.259Z,71.10
2017-07-04T23:17:21.688Z,71.40
2017-07-04T23:19:49.116Z,71.40
2017-07-04T23:22:16.549Z,71.50
2017-07-04T23:24:43.973Z,71.60
2017-07-04T23:27:11.405Z,71.60
2017-07-04T23:29:38.837Z,71.40
2017-07-04T23:32:06.297Z,71.60
2017-07-04T23:34:33.720Z,72.10
2017-07-04T23:37:01.152Z,71.70
2017-07-04T23:39:28.589Z,71.70
2017-07-04T23:41:56.784Z,71.40
2017-07-04T23:44:24.221Z,71.40
2017-07-04T23:46:51.641Z,71.80
2017-07-04T23:49:19.108Z,71.80
2017-07-04T23:51:46.512Z,71.70
2017-07-04T23:54:13.949Z,71.60
2017-07-04T23:56:42.137Z,72.30
2017-07-04T23:59:09.567Z,72.20
